createdAt,value
2018-09-04T00:00:15.872Z,19.01
2018-09-04T00:02:43.323Z,19.04
2018-09-04T00:05:10.533Z,19.02
2018-09-04T00:07:37.630Z,19.08
2018-09-04T00:10:06.222Z,19.01
2018-09-04T00:12:33.322Z,19.00
2018-09-04T00:15:00.453Z,18.99
2018-09-04T00:17:27.573Z,19.02
2018-09-04T00:19:54.665Z,18.97
2018-09-04T00:22:21.788Z,18.90
2018-09-04T00:24:48.929Z,18.85
2018-09-04T00:27:16.073Z,18.80
2018-09-04T00:29:43.174Z,18.86
2018-09-04T00:32:10.359Z,18.86
2018-09-04T00:34:37.493Z,18.82
2018-09-04T00:37:04.620Z,18.79
2018-09-04T00:39:31.701Z,18.77
2018-09-04T00:41:58.886Z,18.71
2018-09-04T00:44:26.070Z,18.79
2018-09-04T00:46:53.228Z,18.80
2018-09-04T00:49:20.346Z,18.77
2018-09-04T00:51:47.473Z,18.79
2018-09-04T00:54:14.570Z,18.78
2018-09-04T00:56:41.845Z,18.77
2018-09-04T00:59:09.065Z,18.71
2018-09-04T01:01:36.384Z,18.68
2018-09-04T01:04:03.482Z,18.66
2018-09-04T01:06:30.690Z,18.63
2018-09-04T01:08:57.825Z,18.55
2018-09-04T01:11:24.933Z,18.57
2018-09-04T01:13:52.069Z,18.61
2018-09-04T01:16:19.153Z,18.66
2018-09-04T01:18:46.258Z,18.70
2018-09-04T01:21:13.349Z,18.66
2018-09-04T01:23:40.814Z,18.67
2018-09-04T01:26:07.912Z,18.59
2018-09-04T01:28:35.170Z,18.59
2018-09-04T01:31:02.301Z,18.54
2018-09-04T01:33:29.501Z,18.56
2018-09-04T01:35:56.594Z,18.68
2018-09-04T01:38:23.714Z,18.68
2018-09-04T01:40:50.806Z,18.64
2018-09-04T01:43:17.926Z,18.66
2018-09-04T01:45:45.048Z,18.61
2018-09-04T01:48:12.913Z,18.48
2018-09-04T01:50:40.417Z,18.37
2018-09-04T01:53:07.558Z,18.29
2018-09-04T01:55:34.665Z,18.28
2018-09-04T01:58:01.737Z,18.25
2018-09-04T02:00:28.906Z,18.26
2018-09-04T02:02:55.996Z,18.26
2018-09-04T02:05:23.146Z,18.32
2018-09-04T02:07:50.241Z,18.34
2018-09-04T02:10:17.353Z,18.32
2018-09-04T02:12:44.494Z,18.31
2018-09-04T02:15:11.600Z,18.30
2018-09-04T02:17:38.721Z,18.31
2018-09-04T02:20:05.850Z,18.28
2018-09-04T02:22:32.978Z,18.33
2018-09-04T02:25:00.090Z,18.37
2018-09-04T02:27:27.193Z,18.29
2018-09-04T02:29:54.339Z,18.24
2018-09-04T02:32:21.417Z,18.27
2018-09-04T02:34:48.562Z,18.25
2018-09-04T02:37:15.658Z,18.16
2018-09-04T02:39:42.762Z,18.13
2018-09-04T02:42:09.883Z,18.09
2018-09-04T02:44:37.025Z,18.04
2018-09-04T02:47:04.171Z,18.11
2018-09-04T02:49:31.245Z,18.10
2018-09-04T02:51:58.334Z,18.05
2018-09-04T02:54:25.442Z,17.94
2018-09-04T02:56:52.550Z,17.85
2018-09-04T02:59:19.721Z,17.75
2018-09-04T03:01:46.996Z,17.81
2018-09-04T03:04:14.135Z,17.75
2018-09-04T03:06:41.249Z,17.73
2018-09-04T03:09:08.358Z,17.67
2018-09-04T03:11:35.458Z,17.61
2018-09-04T03:14:02.650Z,17.61
2018-09-04T03:16:29.671Z,17.65
2018-09-04T03:18:56.765Z,17.69
2018-09-04T03:21:23.877Z,17.73
2018-09-04T03:23:50.997Z,17.73
2018-09-04T03:26:18.121Z,17.65
2018-09-04T03:28:45.282Z,17.65
2018-09-04T03:31:12.383Z,17.63
2018-09-04T03:33:39.535Z,17.63
2018-09-04T03:36:06.721Z,17.71
2018-09-04T03:38:34.073Z,17.81
2018-09-04T03:41:01.168Z,17.84
2018-09-04T03:43:28.274Z,17.82
2018-09-04T03:45:55.389Z,17.79
2018-09-04T03:48:22.648Z,17.72
2018-09-04T03:50:49.793Z,17.70
2018-09-04T03:53:16.917Z,17.73
2018-09-04T03:55:44.014Z,17.73
2018-09-04T03:58:11.138Z,17.71
2018-09-04T04:00:38.268Z,17.70
2018-09-04T04:03:05.405Z,17.78
2018-09-04T04:05:32.829Z,17.78
2018-09-04T04:07:59.966Z,17.78
2018-09-04T04:10:27.062Z,17.76
2018-09-04T04:12:54.209Z,17.72
2018-09-04T04:15:21.573Z,17.71
2018-09-04T04:17:48.671Z,17.74
2018-09-04T04:20:15.801Z,17.74
2018-09-04T04:22:42.914Z,17.76
2018-09-04T04:25:10.007Z,17.68
2018-09-04T04:27:37.174Z,17.68
2018-09-04T04:30:05.041Z,17.70
2018-09-04T04:32:32.190Z,17.71
2018-09-04T04:34:59.404Z,17.73
2018-09-04T04:37:26.600Z,17.71
2018-09-04T04:39:53.822Z,17.61
2018-09-04T04:42:20.841Z,17.64
2018-09-04T04:44:48.027Z,17.63
2018-09-04T04:47:15.175Z,17.67
2018-09-04T04:49:42.297Z,17.74
2018-09-04T04:52:09.410Z,17.74
2018-09-04T04:54:36.489Z,17.79
2018-09-04T04:57:03.721Z,17.72
2018-09-04T04:59:30.832Z,17.45
2018-09-04T05:01:57.934Z,17.71
2018-09-04T05:04:25.025Z,17.70
2018-09-04T05:06:52.191Z,17.79
2018-09-04T05:09:19.331Z,17.78
2018-09-04T05:11:46.449Z,17.74
2018-09-04T05:14:13.536Z,17.71
2018-09-04T05:16:40.663Z,17.70
2018-09-04T05:19:07.747Z,17.66
2018-09-04T05:21:34.880Z,17.71
2018-09-04T05:24:02.042Z,17.78
2018-09-04T05:26:29.182Z,17.79
2018-09-04T05:28:56.319Z,17.88
2018-09-04T05:31:24.862Z,17.82
2018-09-04T05:33:52.017Z,17.74
2018-09-04T05:36:19.210Z,17.79
2018-09-04T05:38:46.803Z,17.78
2018-09-04T05:41:13.934Z,17.82
2018-09-04T05:43:51.514Z,17.80
2018-09-04T05:46:52.519Z,17.79
2018-09-04T05:49:22.559Z,17.78
2018-09-04T05:51:49.726Z,17.76
2018-09-04T05:54:16.874Z,17.75
2018-09-04T05:56:44.014Z,17.69
2018-09-04T05:59:11.107Z,17.69
2018-09-04T06:01:38.247Z,17.71
2018-09-04T06:04:05.409Z,17.79
2018-09-04T06:06:32.553Z,17.87
2018-09-04T06:09:00.624Z,17.89
2018-09-04T06:11:27.892Z,17.89
2018-09-04T06:13:55.014Z,17.97
2018-09-04T06:16:22.115Z,18.07
2018-09-04T06:18:50.447Z,18.10
2018-09-04T06:21:17.550Z,18.13
2018-09-04T06:23:45.035Z,18.05
2018-09-04T06:26:12.155Z,18.07
2018-09-04T06:28:39.282Z,18.12
2018-09-04T06:31:06.394Z,18.09
2018-09-04T06:33:33.525Z,18.17
2018-09-04T06:36:00.697Z,18.23
2018-09-04T06:38:27.867Z,18.29
2018-09-04T06:40:55.319Z,18.38
2018-09-04T06:43:22.464Z,18.51
2018-09-04T06:45:49.633Z,18.41
2018-09-04T06:48:16.741Z,18.47
2018-09-04T06:50:43.916Z,18.49
2018-09-04T06:53:11.086Z,18.43
2018-09-04T06:55:38.200Z,18.48
2018-09-04T06:58:05.393Z,18.56
2018-09-04T07:00:32.520Z,18.66
2018-09-04T07:02:59.826Z,18.73
2018-09-04T07:05:27.126Z,18.79
2018-09-04T07:07:54.678Z,18.82
2018-09-04T07:10:21.822Z,18.82
2018-09-04T07:12:49.026Z,18.86
2018-09-04T07:15:16.200Z,18.83
2018-09-04T07:17:43.301Z,18.86
2018-09-04T07:20:10.435Z,18.91
2018-09-04T07:22:37.666Z,18.86
2018-09-04T07:25:04.891Z,18.83
2018-09-04T07:27:32.051Z,18.86
2018-09-04T07:29:59.154Z,18.95
2018-09-04T07:32:26.303Z,19.06
2018-09-04T07:34:53.430Z,19.08
2018-09-04T07:37:20.574Z,19.10
2018-09-04T07:39:47.717Z,19.15
2018-09-04T07:42:14.937Z,19.17
2018-09-04T07:44:42.020Z,19.18
2018-09-04T07:47:09.194Z,19.23
2018-09-04T07:49:36.283Z,19.29
2018-09-04T07:52:04.108Z,19.31
2018-09-04T07:54:31.245Z,19.35
2018-09-04T07:56:58.464Z,19.48
2018-09-04T07:59:27.768Z,19.69
2018-09-04T08:01:54.913Z,19.78
2018-09-04T08:04:22.061Z,19.86
2018-09-04T08:06:49.215Z,19.75
2018-09-04T08:09:16.325Z,19.61
2018-09-04T08:11:43.415Z,19.59
2018-09-04T08:14:10.886Z,19.71
2018-09-04T08:16:38.022Z,19.83
2018-09-04T08:19:05.130Z,19.91
2018-09-04T08:21:34.819Z,19.96
2018-09-04T08:24:05.354Z,20.06
2018-09-04T08:26:32.516Z,20.13
2018-09-04T08:28:59.687Z,20.04
2018-09-04T08:31:26.846Z,20.33
2018-09-04T08:33:54.107Z,20.30
2018-09-04T08:36:21.218Z,20.43
2018-09-04T08:38:48.849Z,20.61
2018-09-04T08:41:15.977Z,20.57
2018-09-04T08:43:43.250Z,20.52
2018-09-04T08:46:10.365Z,20.70
2018-09-04T08:48:37.522Z,20.88
2018-09-04T08:51:04.735Z,21.05
2018-09-04T08:53:31.927Z,21.14
2018-09-04T08:55:59.026Z,21.19
2018-09-04T08:58:26.298Z,21.34
2018-09-04T09:00:53.480Z,21.39
2018-09-04T09:03:20.694Z,21.48
2018-09-04T09:05:47.855Z,21.39
2018-09-04T09:08:15.003Z,21.47
2018-09-04T09:10:42.248Z,21.57
2018-09-04T09:13:09.446Z,21.58
2018-09-04T09:15:36.802Z,21.63
2018-09-04T09:18:04.215Z,21.67
2018-09-04T09:20:31.545Z,21.85
2018-09-04T09:22:59.331Z,22.04
2018-09-04T09:25:26.678Z,21.93
2018-09-04T09:28:00.574Z,22.06
2018-09-04T09:30:27.965Z,22.33
2018-09-04T09:32:55.076Z,22.52
2018-09-04T09:35:22.444Z,22.55
2018-09-04T09:37:49.631Z,22.73
2018-09-04T09:42:43.486Z,23.04
2018-09-04T09:45:10.783Z,22.99
2018-09-04T09:47:52.784Z,23.12
2018-09-04T09:50:20.901Z,23.37
2018-09-04T09:52:48.679Z,23.56
2018-09-04T09:55:15.883Z,23.66
2018-09-04T09:57:42.970Z,23.59
2018-09-04T10:02:20.547Z,23.69
2018-09-04T10:04:47.911Z,23.65
2018-09-04T10:07:15.260Z,23.96
2018-09-04T10:09:42.590Z,24.10
2018-09-04T10:12:09.861Z,24.20
2018-09-04T10:14:36.993Z,24.26
2018-09-04T10:17:04.787Z,24.35
2018-09-04T10:19:32.077Z,24.41
2018-09-04T10:21:59.198Z,24.42
2018-09-04T10:24:26.663Z,24.31
2018-09-04T10:26:53.872Z,24.54
2018-09-04T10:29:21.013Z,24.39
2018-09-04T10:31:48.209Z,24.30
2018-09-04T10:34:15.954Z,24.18
2018-09-04T10:36:43.787Z,24.40
2018-09-04T10:39:16.753Z,24.58
2018-09-04T10:41:43.893Z,24.72
2018-09-04T10:44:11.076Z,24.89
2018-09-04T10:46:38.532Z,24.67
2018-09-04T10:49:05.709Z,24.78
2018-09-04T10:51:37.966Z,25.04
2018-09-04T10:54:05.512Z,25.28
2018-09-04T10:56:32.770Z,25.48
2018-09-04T10:59:00.067Z,25.63
2018-09-04T11:01:27.337Z,25.40
2018-09-04T11:03:55.250Z,25.58
2018-09-04T11:06:23.809Z,25.22
2018-09-04T11:08:50.997Z,24.97
2018-09-04T11:11:18.141Z,25.27
2018-09-04T11:13:45.582Z,25.16
2018-09-04T11:16:12.714Z,25.10
2018-09-04T11:18:39.831Z,25.23
2018-09-04T11:21:07.115Z,25.47
2018-09-04T11:23:34.378Z,25.55
2018-09-04T11:26:01.543Z,25.56
2018-09-04T11:28:28.837Z,25.79
2018-09-04T11:30:56.224Z,26.05
2018-09-04T11:33:23.413Z,26.23
2018-09-04T11:35:50.639Z,26.46
2018-09-04T11:38:17.793Z,26.58
2018-09-04T11:40:45.069Z,26.47
2018-09-04T11:43:12.564Z,26.41
2018-09-04T11:45:39.802Z,26.43
2018-09-04T11:48:07.218Z,26.58
2018-09-04T11:50:34.327Z,26.72
2018-09-04T11:53:01.505Z,26.76
2018-09-04T11:55:28.654Z,26.87
2018-09-04T11:57:55.934Z,26.74
2018-09-04T12:00:32.430Z,26.56
2018-09-04T12:02:59.621Z,26.39
2018-09-04T12:05:26.803Z,26.69
2018-09-04T12:07:53.987Z,26.87
2018-09-04T12:10:21.137Z,26.85
2018-09-04T12:12:48.325Z,26.92
2018-09-04T12:15:15.423Z,26.99
2018-09-04T12:17:42.544Z,27.17
2018-09-04T12:20:58.900Z,27.24
2018-09-04T12:23:25.902Z,27.23
2018-09-04T12:25:54.500Z,27.29
2018-09-04T12:28:21.622Z,27.14
2018-09-04T12:30:48.777Z,27.26
2018-09-04T12:33:15.924Z,27.56
2018-09-04T12:35:43.045Z,27.42
2018-09-04T12:38:11.856Z,27.50
2018-09-04T12:40:38.979Z,27.89
2018-09-04T12:43:06.086Z,28.04
2018-09-04T12:45:39.000Z,28.16
2018-09-04T12:48:06.236Z,28.25
2018-09-04T12:50:34.109Z,28.37
2018-09-04T12:53:01.388Z,28.53
2018-09-04T12:55:28.571Z,28.58
2018-09-04T12:57:55.708Z,28.59
2018-09-04T13:00:22.954Z,28.91
2018-09-04T13:02:50.229Z,29.09
2018-09-04T13:05:17.859Z,29.14
2018-09-04T13:07:45.057Z,28.83
2018-09-04T13:10:12.191Z,28.41
2018-09-04T13:12:39.398Z,28.17
2018-09-04T13:15:06.875Z,28.19
2018-09-04T13:17:34.040Z,28.12
2018-09-04T13:20:01.205Z,28.00
2018-09-04T13:22:28.335Z,27.83
2018-09-04T13:24:55.477Z,27.71
2018-09-04T13:27:22.614Z,27.70
2018-09-04T13:29:49.761Z,27.69
2018-09-04T13:32:17.174Z,27.67
2018-09-04T13:34:44.516Z,27.81
2018-09-04T13:37:11.621Z,28.16
2018-09-04T13:39:38.703Z,28.28
2018-09-04T13:42:06.426Z,28.60
2018-09-04T13:44:33.537Z,28.46
2018-09-04T13:47:00.811Z,28.06
2018-09-04T13:49:28.078Z,28.25
2018-09-04T13:51:55.198Z,28.40
2018-09-04T13:54:22.317Z,28.65
2018-09-04T13:56:49.454Z,29.15
2018-09-04T13:59:16.594Z,29.67
2018-09-04T14:01:43.798Z,29.94
2018-09-04T14:04:10.986Z,30.23
2018-09-04T14:06:38.130Z,30.32
2018-09-04T14:09:06.442Z,30.51
2018-09-04T14:11:33.730Z,30.54
2018-09-04T14:14:00.997Z,30.61
2018-09-04T14:16:28.019Z,30.56
2018-09-04T14:18:55.199Z,30.18
2018-09-04T14:21:22.349Z,29.85
2018-09-04T14:23:49.615Z,29.48
2018-09-04T14:26:16.899Z,29.14
2018-09-04T14:28:44.137Z,28.96
2018-09-04T14:31:11.314Z,28.72
2018-09-04T14:33:38.430Z,28.49
2018-09-04T14:36:05.677Z,28.31
2018-09-04T14:38:32.736Z,28.23
2018-09-04T14:40:59.870Z,28.23
2018-09-04T14:43:27.098Z,28.26
2018-09-04T14:45:54.254Z,28.17
2018-09-04T14:48:23.490Z,28.02
2018-09-04T14:50:50.642Z,27.83
2018-09-04T14:53:17.837Z,27.79
2018-09-04T14:55:44.925Z,27.70
2018-09-04T14:58:12.052Z,27.72
2018-09-04T15:00:39.193Z,27.69
2018-09-04T15:03:06.329Z,27.59
2018-09-04T15:05:36.917Z,27.51
2018-09-04T15:08:04.245Z,27.30
2018-09-04T15:10:31.376Z,27.18
2018-09-04T15:12:58.600Z,27.20
2018-09-04T15:15:25.803Z,27.18
2018-09-04T15:17:52.950Z,27.24
2018-09-04T15:20:20.156Z,27.33
2018-09-04T15:22:47.344Z,27.82
2018-09-04T15:25:14.599Z,28.01
2018-09-04T15:27:41.749Z,27.87
2018-09-04T15:30:08.985Z,27.75
2018-09-04T15:32:36.193Z,27.72
2018-09-04T15:35:03.408Z,28.15
2018-09-04T15:37:30.559Z,28.44
2018-09-04T15:39:57.708Z,28.53
2018-09-04T15:42:24.923Z,28.99
2018-09-04T15:44:52.047Z,29.49
2018-09-04T15:47:19.210Z,29.86
2018-09-04T15:49:47.345Z,30.23
2018-09-04T15:52:15.257Z,30.71
2018-09-04T15:54:42.466Z,31.13
2018-09-04T15:57:09.555Z,31.29
2018-09-04T15:59:36.810Z,31.20
2018-09-04T16:02:04.041Z,31.50
2018-09-04T16:04:31.202Z,31.76
2018-09-04T16:06:58.324Z,31.73
2018-09-04T16:09:25.661Z,31.06
2018-09-04T16:11:52.872Z,30.70
2018-09-04T16:14:20.018Z,30.22
2018-09-04T16:16:47.157Z,30.25
2018-09-04T16:19:14.274Z,30.62
2018-09-04T16:21:41.459Z,30.93
2018-09-04T16:24:08.908Z,31.33
2018-09-04T16:26:36.063Z,31.49
2018-09-04T16:29:03.154Z,31.67
2018-09-04T16:31:30.314Z,31.89
2018-09-04T16:33:57.425Z,32.09
2018-09-04T16:36:24.618Z,32.29
2018-09-04T16:38:51.729Z,32.31
2018-09-04T16:41:18.932Z,32.32
2018-09-04T16:43:46.289Z,32.27
2018-09-04T16:46:13.425Z,32.42
2018-09-04T16:48:40.605Z,32.41
2018-09-04T16:51:07.754Z,32.08
2018-09-04T16:53:34.862Z,31.46
2018-09-04T16:56:02.227Z,30.89
2018-09-04T16:58:30.358Z,30.99
2018-09-04T17:00:57.519Z,30.93
2018-09-04T17:03:24.687Z,30.61
2018-09-04T17:05:51.790Z,30.45
2018-09-04T17:08:18.918Z,30.60
2018-09-04T17:10:46.267Z,30.12
2018-09-04T17:13:13.491Z,29.89
2018-09-04T17:15:41.060Z,29.77
2018-09-04T17:18:08.256Z,29.50
2018-09-04T17:20:35.385Z,29.30
2018-09-04T17:23:02.541Z,29.06
2018-09-04T17:25:29.698Z,28.91
2018-09-04T17:27:56.907Z,28.82
2018-09-04T17:30:24.077Z,28.71
2018-09-04T17:32:52.215Z,28.62
2018-09-04T17:35:19.398Z,28.47
2018-09-04T17:37:46.662Z,28.37
2018-09-04T17:40:14.274Z,28.22
2018-09-04T17:42:41.514Z,28.18
2018-09-04T17:45:08.722Z,28.14
2018-09-04T17:47:35.883Z,28.13
2018-09-04T17:50:03.057Z,28.06
2018-09-04T17:52:30.172Z,27.88
2018-09-04T17:54:57.345Z,27.71
2018-09-04T17:57:24.506Z,27.55
2018-09-04T17:59:51.707Z,27.55
2018-09-04T18:02:18.921Z,27.49
2018-09-04T18:04:46.093Z,27.35
2018-09-04T18:07:13.282Z,27.19
2018-09-04T18:09:40.485Z,27.03
2018-09-04T18:12:07.647Z,26.90
2018-09-04T18:14:35.616Z,26.88
2018-09-04T18:17:03.790Z,26.89
2018-09-04T18:19:31.013Z,26.91
2018-09-04T18:21:58.240Z,26.87
2018-09-04T18:24:25.442Z,26.80
2018-09-04T18:26:52.678Z,26.70
2018-09-04T18:29:19.811Z,26.67
2018-09-04T18:31:46.994Z,26.63
2018-09-04T18:34:14.347Z,26.41
2018-09-04T18:36:41.530Z,26.24
2018-09-04T18:39:08.737Z,26.30
2018-09-04T18:41:37.411Z,26.23
2018-09-04T18:44:05.531Z,26.17
2018-09-04T18:46:32.739Z,26.00
2018-09-04T18:49:00.411Z,25.93
2018-09-04T18:51:27.577Z,25.67
2018-09-04T18:53:55.260Z,25.44
2018-09-04T18:56:22.462Z,25.35
2018-09-04T18:58:49.844Z,25.40
2018-09-04T19:01:17.054Z,25.52
2018-09-04T19:03:44.252Z,25.49
2018-09-04T19:06:11.448Z,25.47
2018-09-04T19:08:38.668Z,25.40
2018-09-04T19:11:05.891Z,25.10
2018-09-04T19:13:33.079Z,24.90
2018-09-04T19:16:00.199Z,24.73
2018-09-04T19:18:27.450Z,24.69
2018-09-04T19:20:54.687Z,24.76
2018-09-04T19:23:21.907Z,24.92
2018-09-04T19:25:49.144Z,24.98
2018-09-04T19:28:16.354Z,24.96
2018-09-04T19:30:43.542Z,24.95
2018-09-04T19:33:10.731Z,24.99
2018-09-04T19:35:37.915Z,24.96
2018-09-04T19:38:05.128Z,24.98
2018-09-04T19:40:32.309Z,24.94
2018-09-04T19:43:01.741Z,24.94
2018-09-04T19:45:29.145Z,24.80
2018-09-04T19:47:56.624Z,24.73
2018-09-04T19:50:23.958Z,24.75
2018-09-04T19:52:51.125Z,24.62
2018-09-04T19:55:18.441Z,24.60
2018-09-04T19:57:45.656Z,24.58
2018-09-04T20:00:12.985Z,24.66
2018-09-04T20:02:41.002Z,24.76
2018-09-04T20:05:08.926Z,24.78
2018-09-04T20:07:36.141Z,24.76
2018-09-04T20:10:03.411Z,24.66
2018-09-04T20:12:30.799Z,24.60
2018-09-04T20:14:57.975Z,24.32
2018-09-04T20:17:25.248Z,24.09
2018-09-04T20:19:52.726Z,23.80
2018-09-04T20:22:19.947Z,23.66
2018-09-04T20:24:47.242Z,23.61
2018-09-04T20:27:14.695Z,23.43
2018-09-04T20:29:42.060Z,23.34
2018-09-04T20:32:11.883Z,23.30
2018-09-04T20:34:39.303Z,23.38
2018-09-04T20:37:06.540Z,23.38
2018-09-04T20:39:33.749Z,23.32
2018-09-04T20:42:01.019Z,23.28
2018-09-04T20:44:28.292Z,23.24
2018-09-04T20:49:29.476Z,23.11
2018-09-04T20:51:56.680Z,22.98
2018-09-04T20:54:24.049Z,22.96
2018-09-04T20:57:26.802Z,22.88
2018-09-04T21:00:06.462Z,22.75
2018-09-04T21:02:45.522Z,22.69
2018-09-04T21:05:24.573Z,22.50
2018-09-04T21:10:07.789Z,22.45
2018-09-04T21:12:34.952Z,22.44
2018-09-04T21:15:02.159Z,22.40
2018-09-04T21:17:29.437Z,22.40
2018-09-04T21:19:56.680Z,22.42
2018-09-04T21:22:23.901Z,22.44
2018-09-04T21:24:51.252Z,22.39
2018-09-04T21:27:18.737Z,22.41
2018-09-04T21:29:45.913Z,22.38
2018-09-04T21:32:13.145Z,22.37
2018-09-04T21:34:40.837Z,22.34
2018-09-04T21:37:08.203Z,22.29
2018-09-04T21:39:35.443Z,22.21
2018-09-04T21:42:02.601Z,22.26
2018-09-04T21:44:29.804Z,22.21
2018-09-04T21:46:57.029Z,22.18
2018-09-04T21:49:24.278Z,22.22
2018-09-04T21:51:51.498Z,22.28
2018-09-04T21:54:18.671Z,22.15
2018-09-04T21:56:45.811Z,22.11
2018-09-04T21:59:12.985Z,22.10
2018-09-04T22:01:40.154Z,22.11
2018-09-04T22:04:07.365Z,22.15
2018-09-04T22:06:34.554Z,21.93
2018-09-04T22:09:01.745Z,21.78
2018-09-04T22:11:28.913Z,21.80
2018-09-04T22:13:56.054Z,21.80
2018-09-04T22:16:23.231Z,21.87
2018-09-04T22:18:50.390Z,21.83
2018-09-04T22:21:17.585Z,21.74
2018-09-04T22:23:44.707Z,21.74
2018-09-04T22:26:11.893Z,21.66
2018-09-04T22:28:39.176Z,21.57
2018-09-04T22:31:06.381Z,21.53
2018-09-04T22:33:33.516Z,21.52
2018-09-04T22:36:00.690Z,21.39
2018-09-04T22:38:27.813Z,21.32
2018-09-04T22:40:54.994Z,21.32
2018-09-04T22:43:22.144Z,21.20
2018-09-04T22:45:49.337Z,21.22
2018-09-04T22:48:16.478Z,21.23
2018-09-04T22:50:49.538Z,21.24
2018-09-04T22:53:16.629Z,21.11
2018-09-04T22:55:43.788Z,21.10
2018-09-04T22:58:10.994Z,21.07
2018-09-04T23:00:38.094Z,21.02
2018-09-04T23:03:05.727Z,20.99
2018-09-04T23:05:33.670Z,21.03
2018-09-04T23:08:00.872Z,20.90
2018-09-04T23:10:28.098Z,20.77
2018-09-04T23:12:55.282Z,20.85
2018-09-04T23:15:22.409Z,20.86
2018-09-04T23:17:49.551Z,20.83
2018-09-04T23:20:16.658Z,20.77
2018-09-04T23:22:43.979Z,20.77
2018-09-04T23:25:11.185Z,20.51
2018-09-04T23:27:38.314Z,20.54
2018-09-04T23:30:05.485Z,20.52
2018-09-04T23:32:32.644Z,20.48
2018-09-04T23:34:59.805Z,20.52
2018-09-04T23:37:26.973Z,20.38
2018-09-04T23:39:54.149Z,20.26
2018-09-04T23:42:21.243Z,20.18
2018-09-04T23:44:48.450Z,20.16
2018-09-04T23:47:15.597Z,20.17
2018-09-04T23:49:42.745Z,20.17
2018-09-04T23:52:09.847Z,20.11
2018-09-04T23:54:37.026Z,20.18
2018-09-04T23:57:04.281Z,20.14
2018-09-04T23:59:31.410Z,20.13
